Time;durP1;ratioP1;P1;durP2;ratioP2;P2;SDS_P1;SDS_P2;PMS_P1;PMS_P2;Temp;Humidity;BMP_temperature;BMP_pressure;BME280_temperature;BME280_humidity;BME280_pressure;Samples;Min_cycle;Max_cycle;Signal;HPM_P1;HPM_P2
2023/07/08 00:01:21;;;;;;;2.60;2.40;;;22.40;52.10;21.70;96731.00;;;;4966251;28;20260;-78
2023/07/08 00:03:50;;;;;;;2.57;2.10;;;22.40;52.20;21.60;96733.00;;;;4973661;28;20211;-77
2023/07/08 00:06:20;;;;;;;2.70;2.50;;;22.30;52.30;21.60;96740.00;;;;4972761;28;20610;-78
2023/07/08 00:08:47;;;;;;;2.40;2.20;;;22.30;52.30;21.60;96739.00;;;;4966756;28;20208;-77
2023/07/08 00:11:16;;;;;;;2.63;2.33;;;22.30;52.30;21.50;96727.00;;;;4968343;28;20212;-78
2023/07/08 00:13:44;;;;;;;3.20;2.60;;;22.20;52.30;21.50;96722.00;;;;4954664;28;20204;-77
2023/07/08 00:16:12;;;;;;;2.93;2.10;;;22.20;52.40;21.50;96717.00;;;;4956079;28;20711;-78
2023/07/08 00:18:40;;;;;;;2.40;2.20;;;22.10;52.50;21.40;96719.00;;;;4954250;28;20313;-78
2023/07/08 00:21:15;;;;;;;4.07;2.53;;;22.10;52.50;21.40;96718.00;;;;4968673;28;20227;-78
2023/07/08 00:23:44;;;;;;;2.30;2.10;;;22.10;52.50;21.40;96714.00;;;;4975034;28;20727;-78
2023/07/08 00:26:18;;;;;;;2.47;2.27;;;22.10;52.60;21.30;96711.00;;;;4973778;28;20227;-77
2023/07/08 00:28:45;;;;;;;7.60;2.87;;;22.00;52.60;21.30;96710.00;;;;4966085;28;20216;-77
2023/07/08 00:31:13;;;;;;;2.97;2.53;;;22.00;52.60;21.30;96703.00;;;;4969508;28;20217;-78
2023/07/08 00:33:41;;;;;;;2.13;1.90;;;22.00;52.60;21.30;96712.00;;;;4965485;28;20200;-78
2023/07/08 00:36:13;;;;;;;3.27;2.03;;;21.90;52.60;21.20;96712.00;;;;4966813;28;20746;-78
2023/07/08 00:38:44;;;;;;;2.83;2.13;;;21.90;52.70;21.20;96711.00;;;;4963456;28;20206;-78
2023/07/08 00:41:21;;;;;;;3.77;2.60;;;21.90;52.80;21.20;96715.00;;;;4966910;28;20227;-77
2023/07/08 00:43:52;;;;;;;2.83;2.43;;;21.80;52.80;21.10;96715.00;;;;4973335;28;20284;-78
2023/07/08 00:46:51;;;;;;;2.57;2.30;;;21.80;52.90;21.10;96716.00;;;;4965169;28;20327;-78
2023/07/08 00:49:32;;;;;;;2.77;2.27;;;21.80;53.00;21.00;96712.00;;;;4944245;28;20287;-78
2023/07/08 00:52:27;;;;;;;3.50;2.27;;;21.80;53.20;21.00;96716.00;;;;4962188;28;20200;-78
2023/07/08 00:54:59;;;;;;;2.53;2.30;;;21.70;53.30;21.00;96714.00;;;;4957082;28;20202;-78
2023/07/08 00:57:32;;;;;;;2.20;2.00;;;21.70;53.30;21.00;96710.00;;;;4970487;28;20221;-78
2023/07/08 01:00:06;;;;;;;5.00;2.40;;;21.70;53.40;20.90;96711.00;;;;4969604;28;20687;-78
2023/07/08 01:02:40;;;;;;;2.70;2.07;;;21.70;53.50;20.90;96712.00;;;;4972420;28;20219;-78
2023/07/08 01:05:12;;;;;;;2.90;2.37;;;21.60;53.50;20.90;96718.00;;;;4963707;28;20214;-78
2023/07/08 01:07:46;;;;;;;2.90;2.47;;;21.60;53.60;20.80;96717.00;;;;4974098;28;20285;-78
2023/07/08 01:10:20;;;;;;;2.40;2.20;;;21.60;53.60;20.80;96712.00;;;;4966490;28;20212;-78
2023/07/08 01:12:57;;;;;;;3.03;2.00;;;21.60;53.70;20.80;96708.00;;;;4957589;28;20204;-78
2023/07/08 01:15:42;;;;;;;3.13;2.20;;;21.50;53.60;20.80;96703.00;;;;4974290;28;20213;-78
2023/07/08 01:18:12;;;;;;;2.70;2.50;;;21.50;53.70;20.70;96710.00;;;;4953565;28;20199;-78
2023/07/08 01:20:41;;;;;;;3.17;2.50;;;21.50;53.70;20.70;96703.00;;;;4964452;28;20227;-77
2023/07/08 01:23:12;;;;;;;2.63;2.40;;;21.40;53.70;20.70;96710.00;;;;4966083;28;20242;-77
2023/07/08 01:25:42;;;;;;;2.60;2.40;;;21.40;53.70;20.70;96708.00;;;;4970847;28;20226;-77
2023/07/08 01:28:10;;;;;;;2.10;1.90;;;21.40;53.80;20.60;96700.00;;;;4972901;28;20290;-77
2023/07/08 01:30:38;;;;;;;2.27;2.07;;;21.30;53.90;20.60;96697.00;;;;4966180;28;20202;-78
2023/07/08 01:33:16;;;;;;;2.90;2.60;;;21.30;53.90;20.50;96701.00;;;;4956393;28;20626;-78
2023/07/08 01:35:43;;;;;;;2.60;2.40;;;21.30;53.90;20.50;96704.00;;;;4964276;28;20222;-78
2023/07/08 01:38:15;;;;;;;2.63;2.43;;;21.20;53.90;20.50;96715.00;;;;4966866;28;20203;-77
2023/07/08 01:40:52;;;;;;;2.50;2.30;;;21.20;54.00;20.50;96707.00;;;;4962418;28;20195;-77
2023/07/08 01:43:19;;;;;;;2.50;2.20;;;21.20;53.90;20.50;96706.00;;;;4963908;28;20209;-76
2023/07/08 01:45:49;;;;;;;2.83;2.60;;;21.20;54.00;20.40;96708.00;;;;4971569;28;20981;-76
2023/07/08 01:48:21;;;;;;;2.83;2.50;;;21.20;54.10;20.40;96716.00;;;;4959353;28;20218;-78
2023/07/08 01:50:55;;;;;;;2.43;2.23;;;21.10;54.10;20.40;96708.00;;;;4954339;28;20212;-77
2023/07/08 01:53:32;;;;;;;3.40;2.67;;;21.10;54.20;20.40;96715.00;;;;4953334;28;20574;-77
2023/07/08 01:55:59;;;;;;;2.60;2.40;;;21.10;54.40;20.40;96719.00;;;;4962267;28;20222;-77
2023/07/08 01:58:27;;;;;;;2.27;2.10;;;21.10;54.50;20.40;96712.00;;;;4956231;28;20211;-78
2023/07/08 02:00:55;;;;;;;2.80;2.60;;;21.10;54.60;20.40;96715.00;;;;4973062;28;20245;-76
2023/07/08 02:03:23;;;;;;;3.63;2.63;;;21.10;54.70;20.40;96722.00;;;;4957230;28;20287;-77
2023/07/08 02:05:50;;;;;;;3.03;2.40;;;21.00;54.80;20.40;96718.00;;;;4952419;28;20227;-77
2023/07/08 02:08:18;;;;;;;2.30;2.00;;;21.00;54.80;20.30;96717.00;;;;4961147;28;20286;-76
2023/07/08 02:10:55;;;;;;;2.83;2.63;;;21.00;54.90;20.30;96710.00;;;;4967136;28;20204;-77
2023/07/08 02:13:25;;;;;;;3.40;2.30;;;21.00;55.00;20.30;96706.00;;;;4954538;28;20205;-77
2023/07/08 02:15:53;;;;;;;2.60;2.30;;;21.00;55.00;20.30;96708.00;;;;4963835;28;20224;-77
2023/07/08 02:18:24;;;;;;;2.50;2.30;;;21.00;55.10;20.30;96703.00;;;;4954717;28;20561;-77
2023/07/08 02:20:52;;;;;;;2.67;2.40;;;21.00;55.10;20.30;96702.00;;;;4975434;28;20230;-77
2023/07/08 02:23:19;;;;;;;2.63;2.20;;;21.00;55.20;20.30;96701.00;;;;4976363;28;20211;-77
2023/07/08 02:25:53;;;;;;;3.37;2.37;;;21.00;55.80;20.30;96697.00;;;;4974551;28;20226;-77
2023/07/08 02:28:21;;;;;;;3.33;2.70;;;21.00;55.40;20.30;96698.00;;;;4964301;28;20659;-77
2023/07/08 02:30:49;;;;;;;2.50;2.30;;;21.00;55.30;20.30;96694.00;;;;4956279;28;20210;-77
2023/07/08 02:33:17;;;;;;;2.43;2.20;;;21.00;55.30;20.30;96695.00;;;;4963930;28;20207;-76
2023/07/08 02:35:45;;;;;;;2.70;1.90;;;21.00;55.30;20.30;96693.00;;;;4945157;28;20243;-77
2023/07/08 02:38:12;;;;;;;2.80;2.60;;;21.00;55.40;20.30;96692.00;;;;4948348;29;20205;-78
2023/07/08 02:40:40;;;;;;;2.63;2.43;;;21.00;55.30;20.40;96696.00;;;;4953268;28;20230;-78
2023/07/08 02:43:09;;;;;;;2.90;2.47;;;21.00;55.30;20.40;96692.00;;;;4952591;28;20216;-78
2023/07/08 02:45:38;;;;;;;2.70;2.43;;;21.00;55.30;20.40;96695.00;;;;4952723;28;20299;-78
2023/07/08 02:48:05;;;;;;;2.50;2.30;;;21.00;55.30;20.40;96696.00;;;;4957016;28;20588;-78
2023/07/08 02:50:33;;;;;;;2.77;2.57;;;21.00;55.40;20.40;96699.00;;;;4956231;28;20204;-78
2023/07/08 02:53:00;;;;;;;2.90;2.60;;;21.00;55.40;20.40;96692.00;;;;4961142;28;20686;-78
2023/07/08 02:55:27;;;;;;;2.57;2.37;;;21.00;55.40;20.40;96701.00;;;;4968410;28;20226;-78
2023/07/08 02:57:55;;;;;;;3.23;2.20;;;21.10;55.50;20.40;96690.00;;;;4968152;28;20661;-78
2023/07/08 03:00:24;;;;;;;4.20;2.20;;;21.10;55.50;20.40;96692.00;;;;4957593;28;20206;-78
2023/07/08 03:02:51;;;;;;;3.00;2.33;;;21.10;55.60;20.40;96685.00;;;;4956799;28;20247;-77
2023/07/08 03:05:18;;;;;;;3.73;2.83;;;21.10;55.60;20.40;96682.00;;;;4954090;28;20316;-78
2023/07/08 03:07:45;;;;;;;2.77;2.57;;;21.10;55.60;20.40;96687.00;;;;4962643;28;20287;-78
2023/07/08 03:10:13;;;;;;;3.07;2.60;;;21.10;55.70;20.40;96693.00;;;;4964636;28;20211;-77
2023/07/08 03:12:40;;;;;;;2.73;2.30;;;21.10;55.60;20.40;96695.00;;;;4955231;28;20205;-77
2023/07/08 03:15:08;;;;;;;3.43;2.23;;;21.10;55.60;20.40;96695.00;;;;4966756;28;20214;-77
2023/07/08 03:17:37;;;;;;;2.90;2.30;;;21.10;55.60;20.40;96688.00;;;;4975390;28;20213;-78
2023/07/08 03:20:07;;;;;;;3.67;2.67;;;21.10;55.70;20.40;96693.00;;;;4972827;28;20579;-77
2023/07/08 03:22:34;;;;;;;2.60;2.40;;;21.10;55.70;20.40;96695.00;;;;4973348;28;20233;-77
2023/07/08 03:25:02;;;;;;;3.20;2.40;;;21.10;55.60;20.40;96695.00;;;;4970192;28;20656;-78
2023/07/08 03:27:30;;;;;;;2.57;2.37;;;21.10;55.60;20.40;96695.00;;;;4954954;28;20224;-78
2023/07/08 03:29:57;;;;;;;2.73;2.53;;;21.10;55.60;20.40;96695.00;;;;4961379;28;20196;-77
2023/07/08 03:32:25;;;;;;;2.30;2.10;;;21.10;55.70;20.40;96695.00;;;;4964502;28;20206;-77
2023/07/08 03:34:54;;;;;;;2.70;2.50;;;21.10;55.70;20.40;96694.00;;;;4971878;28;20736;-77
2023/07/08 03:37:22;;;;;;;3.43;2.70;;;21.10;55.70;20.50;96693.00;;;;4965064;28;20751;-77
2023/07/08 03:39:49;;;;;;;2.63;2.43;;;21.10;55.70;20.50;96691.00;;;;4966590;28;20579;-78
2023/07/08 03:42:16;;;;;;;2.60;2.40;;;21.10;55.70;20.40;96696.00;;;;4974975;28;20258;-78
2023/07/08 03:44:45;;;;;;;2.90;2.60;;;21.10;55.80;20.50;96691.00;;;;4958265;28;20283;-78
2023/07/08 03:47:12;;;;;;;2.50;2.30;;;21.10;55.90;20.50;96686.00;;;;4972489;28;20230;-77
2023/07/08 03:49:39;;;;;;;4.57;2.50;;;21.10;55.90;20.50;96694.00;;;;4957414;28;20200;-77
2023/07/08 03:52:17;;;;;;;4.40;2.33;;;21.10;56.00;20.50;96688.00;;;;4964656;28;20203;-78
2023/07/08 03:54:46;;;;;;;3.43;2.87;;;21.10;56.70;20.50;96687.00;;;;4951269;28;20264;-78
2023/07/08 03:57:13;;;;;;;3.10;2.80;;;21.10;56.10;20.50;96689.00;;;;4974445;28;20281;-77
2023/07/08 03:59:41;;;;;;;2.60;2.40;;;21.20;56.30;20.50;96687.00;;;;4956643;28;20597;-78
2023/07/08 04:02:11;;;;;;;3.13;2.80;;;21.20;56.30;20.60;96688.00;;;;4971730;28;20270;-77
2023/07/08 04:04:38;;;;;;;2.87;2.67;;;21.20;56.40;20.60;96682.00;;;;4957367;28;20361;-77
2023/07/08 04:07:08;;;;;;;2.63;2.43;;;21.20;56.30;20.60;96687.00;;;;4967466;28;20229;-77
2023/07/08 04:09:49;;;;;;;2.83;2.63;;;21.20;56.40;20.60;96682.00;;;;4967121;28;20204;-78
2023/07/08 04:12:17;;;;;;;2.90;2.70;;;21.20;56.40;20.70;96683.00;;;;4966293;28;20245;-77
2023/07/08 04:14:44;;;;;;;2.40;2.20;;;21.30;56.50;20.70;96678.00;;;;4962255;28;20690;-78
2023/07/08 04:17:13;;;;;;;3.00;2.70;;;21.30;56.60;20.70;96678.00;;;;4967164;28;20227;-77
2023/07/08 04:19:43;;;;;;;2.63;2.43;;;21.30;56.70;20.70;96682.00;;;;4971053;28;20316;-77
2023/07/08 04:22:12;;;;;;;4.23;2.40;;;21.30;56.50;20.80;96687.00;;;;4954024;28;20307;-77
2023/07/08 04:24:40;;;;;;;3.33;2.70;;;21.30;56.60;20.80;96686.00;;;;4954102;28;20212;-76
2023/07/08 04:27:13;;;;;;;2.53;2.33;;;21.40;56.60;20.80;96691.00;;;;4972583;28;20219;-76
2023/07/08 04:29:40;;;;;;;2.63;2.40;;;21.40;56.60;20.90;96694.00;;;;4963364;28;20200;-77
2023/07/08 04:32:08;;;;;;;3.87;2.50;;;21.40;56.80;20.90;96689.00;;;;4964217;28;20200;-77
2023/07/08 04:34:36;;;;;;;3.67;2.60;;;21.50;56.70;20.90;96697.00;;;;4966036;28;20211;-77
2023/07/08 04:37:05;;;;;;;2.90;2.70;;;21.50;57.20;21.00;96703.00;;;;4955445;28;20242;-77
2023/07/08 04:39:34;;;;;;;2.80;2.40;;;21.50;56.60;21.00;96703.00;;;;4965398;28;20224;-77
2023/07/08 04:42:01;;;;;;;2.90;2.70;;;21.60;56.80;21.00;96701.00;;;;4958398;28;20228;-78
2023/07/08 04:44:32;;;;;;;4.27;2.70;;;21.60;56.80;21.00;96703.00;;;;4956722;28;20207;-78
2023/07/08 04:47:00;;;;;;;2.93;2.70;;;21.60;56.70;21.10;96706.00;;;;4957859;28;20235;-77
2023/07/08 04:49:31;;;;;;;2.87;2.63;;;21.60;56.80;21.10;96713.00;;;;4967040;28;20206;-78
2023/07/08 04:51:59;;;;;;;2.70;2.50;;;21.60;56.80;21.10;96717.00;;;;4959906;28;20208;-78
2023/07/08 04:54:26;;;;;;;3.10;2.80;;;21.70;56.80;21.20;96728.00;;;;4960492;28;20212;-78
2023/07/08 04:56:55;;;;;;;2.97;2.67;;;21.70;56.90;21.20;96723.00;;;;4966147;28;20227;-77
2023/07/08 04:59:27;;;;;;;2.50;2.30;;;21.70;57.00;21.30;96719.00;;;;4962915;28;20200;-77
2023/07/08 05:01:54;;;;;;;3.77;2.53;;;21.80;57.00;21.30;96727.00;;;;4976686;28;20291;-78
2023/07/08 05:04:23;;;;;;;2.80;2.50;;;21.90;57.10;21.30;96727.00;;;;4967015;28;20211;-77
2023/07/08 05:06:51;;;;;;;4.20;2.63;;;21.90;57.70;21.40;96739.00;;;;4966041;28;20231;-78
2023/07/08 05:09:22;;;;;;;2.90;2.60;;;21.90;57.00;21.40;96727.00;;;;4961753;28;20208;-78
2023/07/08 05:11:49;;;;;;;3.33;2.37;;;22.00;57.10;21.50;96728.00;;;;4965106;28;20251;-77
2023/07/08 05:14:17;;;;;;;3.30;3.00;;;22.00;57.10;21.50;96735.00;;;;4946292;28;20594;-77
2023/07/08 05:16:45;;;;;;;3.20;2.90;;;22.00;57.00;21.50;96740.00;;;;4960384;28;20226;-77
2023/07/08 05:19:12;;;;;;;3.03;2.63;;;22.10;56.80;21.60;96756.00;;;;4959167;28;20202;-78
2023/07/08 05:21:39;;;;;;;3.63;2.50;;;22.10;56.80;21.60;96752.00;;;;4956300;28;20196;-79
2023/07/08 05:24:08;;;;;;;2.80;2.60;;;22.10;57.20;21.70;96768.00;;;;4964374;28;20206;-76
2023/07/08 05:26:35;;;;;;;3.27;2.97;;;22.20;57.60;21.70;96769.00;;;;4954298;28;20244;-76
2023/07/08 05:29:04;;;;;;;3.27;2.97;;;22.20;57.80;21.80;96766.00;;;;4952318;28;20199;-77
2023/07/08 05:31:35;;;;;;;3.27;2.97;;;22.30;57.70;21.90;96776.00;;;;4959728;28;20695;-77
2023/07/08 05:34:02;;;;;;;2.90;2.70;;;22.40;57.50;21.90;96779.00;;;;4940763;28;20731;-77
2023/07/08 05:36:30;;;;;;;4.33;2.70;;;22.40;57.30;22.00;96782.00;;;;4956933;28;20226;-78
2023/07/08 05:38:57;;;;;;;3.00;2.73;;;22.50;57.40;22.00;96779.00;;;;4968660;28;20200;-78
2023/07/08 05:41:25;;;;;;;3.60;2.80;;;22.50;57.30;22.10;96780.00;;;;4969407;28;20286;-77
2023/07/08 05:43:53;;;;;;;3.80;2.60;;;22.60;57.40;22.20;96786.00;;;;4961407;28;20250;-78
2023/07/08 05:46:20;;;;;;;3.00;2.47;;;22.60;57.50;22.20;96784.00;;;;4967054;28;20251;-77
2023/07/08 05:48:50;;;;;;;3.53;3.20;;;22.70;57.30;22.30;96775.00;;;;4969826;28;20253;-78
2023/07/08 05:51:18;;;;;;;2.83;2.40;;;22.70;57.10;22.30;96777.00;;;;4967543;28;20203;-79
2023/07/08 05:53:45;;;;;;;3.37;3.07;;;22.80;57.60;22.30;96772.00;;;;4964003;28;20291;-78
2023/07/08 05:56:12;;;;;;;3.73;2.73;;;22.80;57.20;22.40;96771.00;;;;4965118;28;20798;-78
2023/07/08 05:58:40;;;;;;;3.23;2.50;;;22.80;57.30;22.40;96766.00;;;;4961948;28;20222;-78
2023/07/08 06:01:07;;;;;;;3.00;2.80;;;22.90;57.50;22.40;96769.00;;;;4964265;28;20207;-78
2023/07/08 06:03:34;;;;;;;3.20;2.90;;;22.90;57.70;22.50;96769.00;;;;4966493;28;20308;-77
2023/07/08 06:06:05;;;;;;;3.07;2.87;;;22.90;57.70;22.50;96770.00;;;;4965808;28;20221;-77
2023/07/08 06:08:33;;;;;;;2.60;2.40;;;23.00;57.60;22.60;96768.00;;;;4967803;28;20213;-78
2023/07/08 06:11:00;;;;;;;3.07;2.67;;;23.10;57.70;22.60;96764.00;;;;4964907;28;20240;-78
2023/07/08 06:13:27;;;;;;;3.43;2.90;;;23.10;57.80;22.70;96763.00;;;;4956841;28;20307;-78
2023/07/08 06:15:54;;;;;;;3.30;3.00;;;23.20;57.80;22.70;96762.00;;;;4969837;28;20598;-79
2023/07/08 06:18:22;;;;;;;2.70;2.43;;;23.20;58.00;22.80;96760.00;;;;4947411;29;20234;-77
2023/07/08 06:20:53;;;;;;;2.80;2.27;;;23.20;58.00;22.80;96754.00;;;;4964608;28;20297;-78
2023/07/08 06:23:22;;;;;;;3.33;3.00;;;23.20;57.60;22.80;96753.00;;;;4964989;28;20232;-79
2023/07/08 06:25:50;;;;;;;3.70;2.83;;;23.30;57.30;22.90;96752.00;;;;4962619;28;20314;-80
2023/07/08 06:28:17;;;;;;;2.93;2.70;;;23.30;57.30;22.90;96755.00;;;;4969130;28;20204;-79
2023/07/08 06:30:45;;;;;;;2.63;2.43;;;23.30;57.10;22.90;96763.00;;;;4968477;28;20213;-79
2023/07/08 06:33:13;;;;;;;3.23;2.87;;;23.40;57.00;23.00;96765.00;;;;4973820;28;20840;-80
2023/07/08 06:35:42;;;;;;;3.47;2.30;;;23.40;56.90;23.00;96764.00;;;;4958384;28;20797;-80
2023/07/08 06:38:10;;;;;;;3.60;2.77;;;23.40;56.80;23.10;96763.00;;;;4969668;28;20765;-79
2023/07/08 06:40:39;;;;;;;2.60;2.40;;;23.50;56.50;23.10;96751.00;;;;4959379;28;21004;-81
2023/07/08 06:43:06;;;;;;;3.13;2.93;;;23.50;56.50;23.20;96744.00;;;;4960667;28;20224;-79
2023/07/08 06:45:33;;;;;;;3.90;3.10;;;23.60;56.50;23.30;96743.00;;;;4974182;28;20224;-79
2023/07/08 06:48:01;;;;;;;3.60;2.63;;;23.60;56.70;23.40;96745.00;;;;4962685;28;20283;-79
2023/07/08 06:50:29;;;;;;;3.70;2.97;;;23.70;57.20;23.50;96745.00;;;;4964510;28;20211;-79
2023/07/08 06:52:56;;;;;;;3.43;2.87;;;23.80;57.10;23.50;96740.00;;;;4960216;28;20204;-77
2023/07/08 06:55:24;;;;;;;4.60;3.30;;;23.80;56.90;23.60;96741.00;;;;4972600;28;20210;-78
2023/07/08 06:57:53;;;;;;;2.97;2.77;;;23.90;56.90;23.70;96743.00;;;;4974286;28;20290;-78
2023/07/08 07:00:21;;;;;;;4.07;2.90;;;24.00;56.60;23.80;96745.00;;;;4962656;28;20212;-78
2023/07/08 07:02:48;;;;;;;3.10;2.80;;;24.10;56.40;23.90;96753.00;;;;4975266;28;20238;-77
2023/07/08 07:05:15;;;;;;;3.00;2.80;;;24.20;56.50;24.00;96757.00;;;;4964067;28;20211;-78
2023/07/08 07:07:42;;;;;;;2.83;2.63;;;24.30;56.30;24.10;96768.00;;;;4964862;28;20655;-77
2023/07/08 07:10:10;;;;;;;3.40;3.00;;;24.30;56.20;24.20;96758.00;;;;4962386;28;20208;-77
2023/07/08 07:12:37;;;;;;;4.77;3.47;;;24.40;56.00;24.30;96756.00;;;;4966773;28;20656;-77
2023/07/08 07:15:07;;;;;;;4.00;2.53;;;24.50;55.90;24.40;96760.00;;;;4973877;28;20206;-77
2023/07/08 07:17:36;;;;;;;3.20;2.87;;;24.60;55.70;24.50;96764.00;;;;4969516;28;20290;-78
2023/07/08 07:20:05;;;;;;;3.00;2.70;;;24.70;55.60;24.60;96773.00;;;;4965698;28;20204;-77
2023/07/08 07:22:32;;;;;;;3.60;2.97;;;24.90;55.70;24.80;96777.00;;;;4972243;28;20219;-77
2023/07/08 07:25:01;;;;;;;3.57;2.97;;;25.00;55.50;24.90;96786.00;;;;4972909;28;20203;-77
2023/07/08 07:27:28;;;;;;;3.17;2.63;;;25.10;55.30;25.10;96781.00;;;;4964082;28;20227;-77
2023/07/08 07:29:55;;;;;;;3.30;3.00;;;25.30;54.70;25.20;96782.00;;;;4973428;28;20223;-78
2023/07/08 07:32:26;;;;;;;3.33;3.03;;;25.40;54.60;25.30;96781.00;;;;4972845;28;20215;-79
2023/07/08 07:34:54;;;;;;;3.67;3.37;;;25.50;54.40;25.40;96791.00;;;;4972937;28;20223;-78
2023/07/08 07:37:22;;;;;;;4.47;3.50;;;25.60;54.30;25.40;96789.00;;;;4962434;28;20315;-78
2023/07/08 07:39:49;;;;;;;3.70;3.20;;;25.70;54.00;25.50;96782.00;;;;4967188;28;20234;-78
2023/07/08 07:42:19;;;;;;;3.20;2.90;;;25.80;53.90;25.60;96793.00;;;;4967015;28;20198;-78
2023/07/08 07:44:47;;;;;;;3.60;3.30;;;25.90;53.70;25.60;96803.00;;;;4974049;28;20219;-78
2023/07/08 07:47:15;;;;;;;4.43;2.97;;;25.90;53.50;25.70;96808.00;;;;4976165;28;20316;-79
2023/07/08 07:49:44;;;;;;;3.50;3.17;;;26.00;53.80;25.70;96801.00;;;;4976753;28;20205;-80
2023/07/08 07:52:11;;;;;;;2.90;2.60;;;26.10;53.80;25.80;96801.00;;;;4965567;28;20555;-79
2023/07/08 07:54:39;;;;;;;3.33;2.80;;;26.10;53.70;25.90;96806.00;;;;4963311;28;20207;-79
2023/07/08 07:57:07;;;;;;;4.93;3.47;;;26.10;53.70;25.90;96807.00;;;;4971201;28;20219;-78
2023/07/08 07:59:34;;;;;;;3.47;3.20;;;26.20;53.60;26.00;96810.00;;;;4969404;28;20259;-77
2023/07/08 08:02:02;;;;;;;5.57;2.93;;;26.30;53.40;26.00;96815.00;;;;4969036;28;20283;-76
2023/07/08 08:04:30;;;;;;;3.23;2.80;;;26.30;53.20;26.10;96818.00;;;;4970588;28;20255;-77
2023/07/08 08:06:58;;;;;;;3.80;2.73;;;26.40;53.10;26.10;96812.00;;;;4956772;28;20225;-77
2023/07/08 08:09:26;;;;;;;3.40;3.10;;;26.50;53.40;26.20;96807.00;;;;4968857;28;20207;-77
2023/07/08 08:11:54;;;;;;;5.50;2.90;;;26.50;53.20;26.30;96803.00;;;;4964205;28;20199;-77
2023/07/08 08:14:24;;;;;;;3.17;2.90;;;26.60;53.20;26.40;96813.00;;;;4966349;28;20284;-77
2023/07/08 08:16:51;;;;;;;3.30;2.93;;;26.70;53.10;26.50;96808.00;;;;4972251;28;20250;-77
2023/07/08 08:19:19;;;;;;;3.23;2.93;;;26.80;53.20;26.60;96812.00;;;;4970966;28;20673;-77
2023/07/08 08:21:47;;;;;;;3.10;2.73;;;26.90;53.20;26.70;96817.00;;;;4969851;28;20204;-78
2023/07/08 08:24:16;;;;;;;4.27;2.87;;;27.00;53.30;26.80;96822.00;;;;4965564;28;21023;-78
2023/07/08 08:26:43;;;;;;;3.73;3.20;;;27.10;53.20;26.90;96826.00;;;;4969707;28;20230;-77
2023/07/08 08:29:11;;;;;;;3.50;3.20;;;27.20;53.20;27.00;96821.00;;;;4967085;28;20365;-78
2023/07/08 08:31:38;;;;;;;3.27;2.97;;;27.20;53.20;27.00;96831.00;;;;4965524;28;20198;-78
2023/07/08 08:34:05;;;;;;;3.10;2.80;;;27.30;52.90;27.10;96837.00;;;;4968549;28;20295;-78
2023/07/08 08:36:33;;;;;;;4.83;3.20;;;27.40;52.20;27.10;96828.00;;;;4954550;28;20246;-78
2023/07/08 08:39:00;;;;;;;4.00;3.10;;;27.40;51.90;27.10;96835.00;;;;4959546;28;20195;-77
2023/07/08 08:41:35;;;;;;;3.00;2.80;;;27.50;51.90;27.20;96838.00;;;;4958515;28;20207;-77
2023/07/08 08:44:04;;;;;;;4.33;3.30;;;27.50;51.60;27.20;96841.00;;;;4967649;28;20269;-77
2023/07/08 08:46:43;;;;;;;4.85;3.08;;;27.50;51.60;27.20;96850.00;;;;4966140;28;20224;-77
2023/07/08 08:49:24;;;;;;;3.17;2.87;;;27.60;52.00;27.20;96857.00;;;;4973655;28;20583;-77
2023/07/08 08:51:53;;;;;;;5.40;3.37;;;27.60;51.50;27.30;96861.00;;;;4970583;28;20200;-79
2023/07/08 08:54:21;;;;;;;3.43;3.13;;;27.60;51.80;27.30;96855.00;;;;4986628;28;20235;-79
2023/07/08 08:57:08;;;;;;;4.05;3.45;;;27.60;52.10;27.30;96860.00;;;;4980786;28;20227;-79
2023/07/08 08:59:44;;;;;;;3.43;3.13;;;27.60;50.90;27.30;96857.00;;;;4975863;28;20207;-79
2023/07/08 09:02:37;;;;;;;3.08;2.85;;;27.70;51.30;27.30;96871.00;;;;4968522;28;20286;-80
2023/07/08 09:05:08;;;;;;;3.30;3.00;;;27.70;50.70;27.40;96874.00;;;;4967602;28;20219;-79
2023/07/08 09:07:48;;;;;;;3.53;3.23;;;27.70;51.60;27.40;96867.00;;;;4964746;28;20661;-80
2023/07/08 09:10:40;;;;;;;3.47;3.10;;;27.70;51.30;27.40;96872.00;;;;4970863;28;20294;-79
2023/07/08 09:13:22;;;;;;;3.40;3.10;;;27.70;51.20;27.40;96874.00;;;;4966465;28;20204;-80
2023/07/08 09:16:02;;;;;;;3.85;3.40;;;27.80;51.00;27.50;96871.00;;;;4969301;28;20238;-80
2023/07/08 09:18:39;;;;;;;5.25;3.20;;;27.80;51.30;27.50;96875.00;;;;4970959;28;20642;-80
2023/07/08 09:21:22;;;;;;;3.55;3.25;;;27.80;50.50;27.50;96871.00;;;;4969135;28;20286;-81
2023/07/08 09:23:58;;;;;;;3.28;3.00;;;27.80;50.30;27.50;96876.00;;;;4967674;28;20223;-80
2023/07/08 09:26:28;;;;;;;4.13;2.92;;;27.80;50.40;27.50;96877.00;;;;4973870;28;20221;-79
2023/07/08 09:28:57;;;;;;;3.40;2.85;;;27.80;50.70;27.60;96880.00;;;;4969142;28;20250;-81
2023/07/08 09:31:29;;;;;;;3.83;3.28;;;27.80;50.90;27.60;96877.00;;;;4968956;28;20368;-79
2023/07/08 09:34:08;;;;;;;3.72;3.42;;;27.90;50.80;27.60;96881.00;;;;4971022;28;20227;-77
2023/07/08 09:36:41;;;;;;;3.38;3.08;;;27.90;50.30;27.70;96877.00;;;;4967492;28;20215;-77
2023/07/08 09:39:12;;;;;;;3.88;3.55;;;28.00;50.80;27.80;96879.00;;;;4962290;28;20215;-78
2023/07/08 09:41:41;;;;;;;3.90;3.40;;;28.00;50.50;27.90;96878.00;;;;4967806;28;20202;-78
2023/07/08 09:44:23;;;;;;;4.00;3.50;;;28.10;50.90;27.90;96874.00;;;;4963881;28;20314;-78
2023/07/08 09:46:50;;;;;;;4.03;3.67;;;28.20;50.50;28.00;96871.00;;;;4963823;28;20639;-78
2023/07/08 09:49:23;;;;;;;3.80;3.40;;;28.30;50.80;28.10;96874.00;;;;4953103;28;20203;-78
2023/07/08 09:51:52;;;;;;;4.13;3.33;;;28.30;50.80;28.30;96881.00;;;;4974187;28;20207;-78
2023/07/08 09:54:22;;;;;;;3.40;2.92;;;28.40;50.70;28.30;96883.00;;;;4973794;28;20642;-78
2023/07/08 09:57:13;;;;;;;4.53;3.40;;;28.50;50.30;28.40;96879.00;;;;4966209;28;20226;-78
2023/07/08 09:59:49;;;;;;;3.35;3.05;;;28.60;49.60;28.50;96886.00;;;;4966651;28;20203;-78
2023/07/08 10:02:31;;;;;;;3.85;3.47;;;28.70;49.80;28.60;96886.00;;;;4979244;28;20195;-77
2023/07/08 10:05:08;;;;;;;3.17;2.92;;;28.80;49.70;28.70;96884.00;;;;4973584;28;20226;-79
2023/07/08 10:07:36;;;;;;;3.80;3.40;;;29.00;50.00;28.80;96885.00;;;;4976397;28;20204;-78
2023/07/08 10:10:11;;;;;;;3.40;3.10;;;29.10;50.50;28.90;96881.00;;;;4973445;28;20221;-79
2023/07/08 10:12:46;;;;;;;3.60;3.30;;;29.20;50.40;29.00;96877.00;;;;4973166;28;20293;-79
2023/07/08 10:15:24;;;;;;;3.53;3.20;;;29.30;50.70;29.10;96875.00;;;;4967389;28;20199;-79
2023/07/08 10:17:55;;;;;;;4.30;3.22;;;29.30;49.50;29.10;96876.00;;;;4972814;28;20257;-79
2023/07/08 10:20:28;;;;;;;3.28;2.97;;;29.40;49.80;29.20;96871.00;;;;4968420;28;20196;-79
2023/07/08 10:23:18;;;;;;;3.45;3.15;;;29.50;50.20;29.30;96880.00;;;;4962196;28;20231;-79
2023/07/08 10:25:55;;;;;;;4.00;3.30;;;29.60;48.90;29.30;96886.00;;;;4971810;28;20297;-79
2023/07/08 10:28:35;;;;;;;3.60;3.30;;;29.60;49.10;29.40;96884.00;;;;4970224;28;20210;-79
2023/07/08 10:31:28;;;;;;;3.03;2.83;;;29.70;49.10;29.40;96881.00;;;;4970053;28;20208;-79
2023/07/08 10:34:25;;;;;;;3.95;3.65;;;29.70;48.80;29.40;96883.00;;;;4970822;28;20211;-79
2023/07/08 10:36:59;;;;;;;3.55;3.03;;;29.80;49.10;29.50;96885.00;;;;4974472;28;20215;-79
2023/07/08 10:40:00;;;;;;;3.42;3.13;;;29.80;49.20;29.50;96879.00;;;;4972808;28;20206;-78
2023/07/08 10:42:53;;;;;;;5.20;3.15;;;29.80;48.40;29.60;96879.00;;;;4951664;28;20676;-78
2023/07/08 10:45:31;;;;;;;3.55;3.25;;;29.90;48.80;29.60;96878.00;;;;4954530;28;20245;-78
2023/07/08 10:48:19;;;;;;;3.35;3.05;;;29.90;49.10;29.70;96878.00;;;;4958922;28;20575;-78
2023/07/08 10:51:14;;;;;;;4.32;3.22;;;30.00;49.70;29.90;96881.00;;;;4970357;28;20195;-78
2023/07/08 10:54:10;;;;;;;4.00;3.60;;;30.10;49.00;30.00;96882.00;;;;4968518;28;20195;-78
2023/07/08 10:56:51;;;;;;;3.65;3.35;;;30.30;49.40;30.20;96879.00;;;;4961137;28;20223;-78
2023/07/08 10:59:44;;;;;;;3.58;3.28;;;30.40;49.20;30.30;96880.00;;;;4971085;28;20210;-78
2023/07/08 11:02:56;;;;;;;3.35;3.05;;;30.50;48.90;30.40;96887.00;;;;4968699;28;20624;-79
2023/07/08 11:05:39;;;;;;;3.13;2.83;;;30.60;48.70;30.50;96883.00;;;;4967630;28;20230;-79
2023/07/08 11:08:16;;;;;;;3.90;3.45;;;30.70;48.20;30.50;96891.00;;;;4972622;28;20199;-78
2023/07/08 11:10:52;;;;;;;4.60;4.20;;;30.80;48.30;30.60;96887.00;;;;4969429;28;20266;-78
2023/07/08 11:13:24;;;;;;;3.65;3.25;;;30.80;47.50;30.70;96888.00;;;;4960336;28;20664;-79